createdAt,value
2019-04-21T00:01:38.622Z,52.20
2019-04-21T00:04:19.803Z,49.60
2019-04-21T00:06:55.273Z,50.00
2019-04-21T00:09:27.792Z,49.80
2019-04-21T00:11:59.850Z,50.80
2019-04-21T00:14:14.149Z,49.60
2019-04-21T00:16:46.607Z,51.40
2019-04-21T00:19:15.465Z,51.50
2019-04-21T00:21:45.742Z,49.50
2019-04-21T00:24:23.633Z,48.00
2019-04-21T00:26:57.504Z,48.30
2019-04-21T00:29:34.257Z,48.80
2019-04-21T00:31:56.393Z,48.70
2019-04-21T00:34:11.198Z,49.10
2019-04-21T00:36:50.238Z,50.00
2019-04-21T00:39:36.462Z,49.80
2019-04-21T00:42:00.877Z,48.50
2019-04-21T00:44:24.036Z,48.10
2019-04-21T00:46:58.353Z,47.70
2019-04-21T00:49:23.314Z,48.80
2019-04-21T00:52:25.226Z,49.60
2019-04-21T00:54:44.440Z,50.90
2019-04-21T00:57:13.013Z,49.70
2019-04-21T00:59:43.300Z,49.00
2019-04-21T01:02:06.436Z,48.70
2019-04-21T01:04:44.859Z,49.20
2019-04-21T01:07:07.257Z,49.90
2019-04-21T01:09:31.705Z,51.70
2019-04-21T01:12:07.800Z,50.70
2019-04-21T01:14:45.597Z,52.40
2019-04-21T01:17:14.574Z,51.20
2019-04-21T01:19:33.712Z,50.10
2019-04-21T01:21:45.363Z,49.70
2019-04-21T01:24:21.655Z,51.30
2019-04-21T01:26:56.760Z,51.60
2019-04-21T01:29:36.893Z,52.00
2019-04-21T01:32:13.490Z,51.90
2019-04-21T01:34:40.888Z,51.80
2019-04-21T01:36:58.870Z,53.00
2019-04-21T01:39:43.036Z,52.40
2019-04-21T01:42:03.525Z,53.30
2019-04-21T01:44:41.861Z,52.60
2019-04-21T01:46:58.243Z,52.40
2019-04-21T01:49:27.956Z,51.70
2019-04-21T01:52:18.072Z,52.20
2019-04-21T01:54:44.918Z,52.70
2019-04-21T01:57:10.409Z,51.80
2019-04-21T01:59:36.685Z,52.80
2019-04-21T02:02:11.053Z,52.30
2019-04-21T02:04:50.340Z,53.30
2019-04-21T02:07:11.264Z,52.50
2019-04-21T02:09:44.274Z,52.50
2019-04-21T02:12:14.749Z,52.10
2019-04-21T02:14:45.832Z,52.70
2019-04-21T02:17:13.313Z,52.40
2019-04-21T02:19:35.875Z,53.60
2019-04-21T02:22:04.885Z,53.60
2019-04-21T02:27:13.985Z,54.00
2019-04-21T02:29:41.545Z,54.00
2019-04-21T02:37:38.399Z,58.10
2019-04-21T02:39:57.319Z,63.40
2019-04-21T02:42:24.213Z,65.90
2019-04-21T02:44:51.430Z,84.60
2019-04-21T02:47:27.362Z,84.30
2019-04-21T02:50:00.280Z,77.60
2019-04-21T02:55:01.286Z,81.50
2019-04-21T02:59:59.573Z,87.30
2019-04-21T03:02:36.716Z,91.30
2019-04-21T03:05:05.210Z,91.90
2019-04-21T03:07:44.292Z,92.80
2019-04-21T03:09:57.956Z,92.50
2019-04-21T03:12:28.684Z,93.40
2019-04-21T03:17:43.594Z,95.70
2019-04-21T03:20:03.131Z,96.90
2019-04-21T03:27:41.137Z,97.90
2019-04-21T03:37:32.993Z,99.30
2019-04-21T03:40:03.327Z,99.90
2019-04-21T03:42:38.536Z,99.90
2019-04-21T03:45:03.548Z,99.90
2019-04-21T03:47:35.993Z,99.90
2019-04-21T03:50:24.201Z,99.90
2019-04-21T03:55:44.758Z,99.90
2019-04-21T03:57:57.392Z,99.90
2019-04-21T04:00:31.819Z,99.90
2019-04-21T04:02:55.733Z,99.90
2019-04-21T04:05:23.885Z,99.90
2019-04-21T04:10:22.838Z,99.90
2019-04-21T04:12:50.350Z,99.90
2019-04-21T04:15:26.017Z,99.90
2019-04-21T04:17:46.030Z,99.90
2019-04-21T04:20:25.823Z,99.90
2019-04-21T04:22:56.419Z,99.90
2019-04-21T04:32:53.225Z,99.90
2019-04-21T04:35:21.556Z,99.90
2019-04-21T04:38:07.090Z,99.90
2019-04-21T04:40:21.569Z,99.90
2019-04-21T04:45:28.249Z,99.90
2019-04-21T04:47:49.962Z,99.90
2019-04-21T04:50:19.803Z,99.90
2019-04-21T04:53:01.259Z,99.90
2019-04-21T04:55:19.091Z,99.90
2019-04-21T05:00:25.762Z,99.90
2019-04-21T05:02:54.161Z,99.90
2019-04-21T05:07:58.000Z,99.90
2019-04-21T05:10:18.610Z,99.90
2019-04-21T05:12:43.889Z,99.90
2019-04-21T05:15:12.813Z,99.90
2019-04-21T05:17:51.756Z,99.90
2019-04-21T05:22:42.741Z,99.90
2019-04-21T05:25:07.009Z,99.90
2019-04-21T05:27:34.641Z,99.90
2019-04-21T05:30:29.570Z,99.90
2019-04-21T05:33:01.380Z,99.90
2019-04-21T05:35:32.205Z,99.90
2019-04-21T05:38:00.870Z,99.90
2019-04-21T05:40:29.862Z,99.90
2019-04-21T05:43:04.721Z,99.90
2019-04-21T05:45:34.894Z,99.90
2019-04-21T05:48:13.449Z,99.90
2019-04-21T05:50:32.506Z,99.90
2019-04-21T05:52:58.545Z,99.90
2019-04-21T05:58:04.198Z,99.90
2019-04-21T06:00:55.593Z,99.90
2019-04-21T06:03:11.571Z,99.90
2019-04-21T06:08:10.400Z,99.90
2019-04-21T06:10:34.937Z,99.90
2019-04-21T06:13:05.836Z,99.90
2019-04-21T06:15:37.345Z,99.90
2019-04-21T06:18:05.303Z,99.90
2019-04-21T06:20:36.935Z,99.90
2019-04-21T06:23:03.422Z,99.90
2019-04-21T06:28:10.871Z,99.90
2019-04-21T06:30:47.018Z,99.90
2019-04-21T06:33:08.146Z,99.90
2019-04-21T06:35:48.330Z,99.90
2019-04-21T06:38:03.703Z,99.90
2019-04-21T06:40:43.775Z,99.90
2019-04-21T06:43:18.006Z,99.90
2019-04-21T06:45:40.725Z,99.90
2019-04-21T06:48:12.231Z,99.90
2019-04-21T06:50:41.525Z,99.90
2019-04-21T06:53:08.814Z,99.90
2019-04-21T06:55:34.116Z,99.90
2019-04-21T06:58:07.985Z,99.90
2019-04-21T07:00:35.807Z,99.90
2019-04-21T07:03:16.012Z,99.90
2019-04-21T07:05:41.228Z,99.90
2019-04-21T07:08:21.695Z,99.90
2019-04-21T07:10:37.269Z,99.90
2019-04-21T07:13:03.242Z,99.90
2019-04-21T07:15:39.022Z,99.90
2019-04-21T07:18:04.574Z,99.90
2019-04-21T07:20:37.942Z,99.90
2019-04-21T07:23:13.040Z,99.90
2019-04-21T07:25:40.762Z,99.90
2019-04-21T07:28:05.674Z,99.90
2019-04-21T07:30:51.605Z,99.90
2019-04-21T07:33:20.726Z,99.90
2019-04-21T07:35:51.700Z,99.90
2019-04-21T07:38:03.043Z,99.90
2019-04-21T07:40:29.205Z,99.90
2019-04-21T07:42:59.281Z,99.90
2019-04-21T07:45:26.186Z,99.90
2019-04-21T07:48:16.037Z,99.90
2019-04-21T07:53:55.336Z,99.90
2019-04-21T07:56:06.286Z,99.90
2019-04-21T07:58:53.587Z,99.90
2019-04-21T08:01:18.070Z,99.90
2019-04-21T08:03:45.498Z,99.90
2019-04-21T08:06:25.337Z,99.90
2019-04-21T08:08:49.449Z,99.90
2019-04-21T08:11:15.253Z,99.90
2019-04-21T08:13:45.877Z,99.90
2019-04-21T08:16:17.224Z,99.90
2019-04-21T08:18:50.213Z,99.90
2019-04-21T08:21:11.213Z,99.90
2019-04-21T08:23:52.122Z,99.90
2019-04-21T08:26:22.697Z,99.90
2019-04-21T08:28:46.902Z,99.90
2019-04-21T08:31:14.562Z,99.90
2019-04-21T08:36:32.543Z,99.90
2019-04-21T08:38:51.502Z,99.90
2019-04-21T08:41:12.324Z,99.90
2019-04-21T08:43:48.106Z,99.90
2019-04-21T08:46:20.328Z,99.90
2019-04-21T08:48:52.586Z,99.90
2019-04-21T08:51:27.734Z,99.90
2019-04-21T08:53:50.679Z,99.90
2019-04-21T08:56:41.322Z,99.90
2019-04-21T08:58:56.075Z,99.90
2019-04-21T09:04:23.412Z,99.90
2019-04-21T09:09:27.850Z,99.90
2019-04-21T09:11:54.247Z,99.90
2019-04-21T09:14:20.619Z,99.90
2019-04-21T09:16:50.341Z,99.90
2019-04-21T09:19:26.323Z,99.90
2019-04-21T09:21:50.253Z,99.90
2019-04-21T09:24:21.988Z,99.90
2019-04-21T09:26:46.623Z,99.90
2019-04-21T09:29:14.007Z,99.90
2019-04-21T09:31:36.570Z,99.90
2019-04-21T09:34:04.410Z,99.90
2019-04-21T09:36:38.147Z,99.90
2019-04-21T09:39:08.714Z,99.90
2019-04-21T09:41:33.988Z,99.90
2019-04-21T09:44:01.245Z,99.90
2019-04-21T09:46:35.487Z,99.90
2019-04-21T09:49:04.103Z,99.90
2019-04-21T09:51:30.573Z,99.90
2019-04-21T09:54:05.713Z,99.90
2019-04-21T09:56:38.253Z,99.90
2019-04-21T09:59:11.426Z,99.90
2019-04-21T10:01:47.505Z,99.90
2019-04-21T10:04:02.962Z,99.90
2019-04-21T10:06:30.572Z,99.90
2019-04-21T10:09:04.248Z,99.90
2019-04-21T10:11:28.801Z,99.90
2019-04-21T10:13:58.864Z,99.90
2019-04-21T10:16:30.573Z,99.90
2019-04-21T10:19:00.253Z,99.90
2019-04-21T10:21:29.845Z,99.90
2019-04-21T10:23:59.861Z,99.90
2019-04-21T10:26:30.474Z,99.90
2019-04-21T10:29:06.361Z,99.90
2019-04-21T10:31:29.017Z,99.90
2019-04-21T10:33:58.942Z,99.90
2019-04-21T10:36:28.936Z,99.90
2019-04-21T10:38:58.978Z,99.90
2019-04-21T10:41:27.569Z,99.90
2019-04-21T10:43:57.196Z,99.90
2019-04-21T10:46:26.682Z,99.90
2019-04-21T10:48:56.865Z,99.90
2019-04-21T10:51:26.070Z,99.90
2019-04-21T10:53:55.963Z,99.90
2019-04-21T10:56:31.291Z,99.90
2019-04-21T10:58:56.177Z,99.90
2019-04-21T11:01:25.306Z,99.90
2019-04-21T11:03:58.540Z,99.90
2019-04-21T11:06:28.755Z,99.90
2019-04-21T11:08:59.979Z,99.90
2019-04-21T11:11:27.968Z,99.90
2019-04-21T11:13:58.759Z,99.90
2019-04-21T11:16:28.888Z,99.90
2019-04-21T11:18:57.967Z,99.90
2019-04-21T11:21:27.130Z,99.90
2019-04-21T11:23:56.630Z,99.90
2019-04-21T11:26:25.925Z,99.90
2019-04-21T11:28:55.191Z,99.90
2019-04-21T11:31:25.407Z,99.90
2019-04-21T11:33:55.887Z,99.90
2019-04-21T11:36:25.280Z,99.90
2019-04-21T11:39:08.572Z,99.90
2019-04-21T11:41:25.692Z,99.90
2019-04-21T11:43:55.056Z,99.90
2019-04-21T11:46:26.654Z,99.90
2019-04-21T11:48:55.487Z,99.90
2019-04-21T11:51:25.192Z,99.90
2019-04-21T11:53:54.999Z,99.90
2019-04-21T11:56:25.068Z,99.90
2019-04-21T11:58:54.189Z,99.90
2019-04-21T12:01:23.728Z,99.90
2019-04-21T12:03:53.771Z,99.90
2019-04-21T12:06:28.607Z,99.90
2019-04-21T12:08:54.479Z,99.90
2019-04-21T12:11:23.259Z,99.90
2019-04-21T12:13:52.334Z,99.90
2019-04-21T12:16:23.260Z,99.90
2019-04-21T12:18:52.410Z,99.90
2019-04-21T12:21:21.256Z,99.90
2019-04-21T12:23:50.681Z,99.90
2019-04-21T12:26:20.330Z,99.90
2019-04-21T12:28:50.102Z,99.90
2019-04-21T12:31:25.455Z,99.90
2019-04-21T12:33:56.187Z,99.90
2019-04-21T12:36:25.167Z,99.90
2019-04-21T12:38:59.305Z,99.90
2019-04-21T12:41:24.828Z,99.90
2019-04-21T12:43:54.985Z,99.90
2019-04-21T12:46:25.685Z,99.90
2019-04-21T12:48:55.782Z,99.90
2019-04-21T12:51:24.161Z,99.90
2019-04-21T12:53:54.043Z,99.90
2019-04-21T12:56:23.409Z,99.90
2019-04-21T12:58:53.559Z,99.90
2019-04-21T13:01:23.153Z,99.90
2019-04-21T13:03:52.445Z,99.90
2019-04-21T13:06:21.712Z,99.90
2019-04-21T13:08:59.462Z,99.90
2019-04-21T13:11:23.291Z,99.90
2019-04-21T13:13:53.562Z,99.90
2019-04-21T13:16:23.355Z,99.90
2019-04-21T13:18:53.329Z,99.90
2019-04-21T13:21:22.421Z,99.90
2019-04-21T13:23:52.698Z,99.90
2019-04-21T13:26:31.984Z,99.90
2019-04-21T13:28:52.243Z,99.90
2019-04-21T13:31:22.327Z,99.90
2019-04-21T13:33:52.313Z,99.90
2019-04-21T13:36:23.341Z,99.90
2019-04-21T13:41:59.901Z,99.90
2019-04-21T13:44:19.358Z,99.90
2019-04-21T13:46:49.007Z,99.90
2019-04-21T13:49:19.085Z,99.90
2019-04-21T13:51:48.001Z,99.90
2019-04-21T13:54:18.062Z,99.90
2019-04-21T13:56:47.193Z,99.90
2019-04-21T13:59:18.272Z,99.90
2019-04-21T14:01:47.796Z,99.90
2019-04-21T14:04:17.807Z,99.90
2019-04-21T14:06:47.911Z,99.90
2019-04-21T14:09:17.644Z,99.90
2019-04-21T14:11:47.331Z,99.90
2019-04-21T14:14:16.569Z,99.90
2019-04-21T14:16:47.989Z,99.90
2019-04-21T14:19:17.509Z,99.90
2019-04-21T14:21:49.491Z,99.90
2019-04-21T14:24:17.219Z,99.90
2019-04-21T14:26:47.829Z,99.90
2019-04-21T14:29:17.579Z,99.90
2019-04-21T14:31:46.444Z,99.90
2019-04-21T14:34:16.317Z,99.90
2019-04-21T14:36:46.489Z,99.90
2019-04-21T14:39:16.565Z,99.90
2019-04-21T14:41:46.254Z,99.90
2019-04-21T14:44:15.252Z,99.90
2019-04-21T14:46:49.389Z,99.90
2019-04-21T14:49:21.280Z,99.90
2019-04-21T14:51:54.663Z,99.90
2019-04-21T14:54:28.816Z,99.90
2019-04-21T14:56:58.203Z,99.90
2019-04-21T14:59:30.998Z,99.90
2019-04-21T15:02:00.163Z,99.90
2019-04-21T15:04:29.440Z,99.90
2019-04-21T15:06:59.256Z,99.90
2019-04-21T15:09:29.452Z,99.90
2019-04-21T15:12:00.087Z,99.90
2019-04-21T15:14:29.796Z,99.90
2019-04-21T15:17:00.826Z,99.90
2019-04-21T15:19:29.138Z,99.90
2019-04-21T15:22:00.693Z,99.90
2019-04-21T15:24:30.200Z,99.90
2019-04-21T15:27:00.861Z,99.90
2019-04-21T15:29:29.323Z,99.90
2019-04-21T15:31:59.020Z,99.90
2019-04-21T15:34:29.782Z,99.90
2019-04-21T15:36:58.093Z,99.90
2019-04-21T15:39:27.931Z,99.90
2019-04-21T15:41:58.688Z,99.90
2019-04-21T15:44:27.086Z,99.90
2019-04-21T15:46:57.727Z,99.90
2019-04-21T15:49:28.325Z,99.90
2019-04-21T15:51:58.003Z,99.90
2019-04-21T15:54:26.917Z,99.90
2019-04-21T15:56:58.604Z,99.90
2019-04-21T15:59:28.956Z,99.90
2019-04-21T16:01:58.842Z,99.90
2019-04-21T16:04:28.605Z,98.90
2019-04-21T16:06:59.379Z,98.20
2019-04-21T16:09:30.400Z,98.00
2019-04-21T16:11:57.930Z,98.30
2019-04-21T16:14:28.853Z,98.30
2019-04-21T16:16:57.147Z,98.30
2019-04-21T16:19:27.166Z,98.20
2019-04-21T16:21:56.913Z,98.80
2019-04-21T16:24:27.268Z,97.20
2019-04-21T16:26:56.522Z,98.80
2019-04-21T16:29:25.495Z,97.60
2019-04-21T16:31:55.274Z,93.20
2019-04-21T16:34:36.049Z,93.90
2019-04-21T16:36:55.875Z,93.40
2019-04-21T16:39:25.643Z,92.40
2019-04-21T16:41:56.265Z,92.40
2019-04-21T16:44:27.254Z,90.10
2019-04-21T16:46:56.642Z,87.20
2019-04-21T16:49:27.146Z,87.10
2019-04-21T16:52:02.325Z,92.50
2019-04-21T16:54:33.580Z,92.20
2019-04-21T16:57:03.650Z,91.50
2019-04-21T16:59:32.706Z,94.90
2019-04-21T17:02:02.742Z,94.70
2019-04-21T17:04:32.330Z,91.60
2019-04-21T17:07:03.001Z,90.30
2019-04-21T17:09:32.654Z,95.00
2019-04-21T17:12:04.001Z,94.60
2019-04-21T17:14:49.484Z,93.50
2019-04-21T17:17:26.797Z,93.40
2019-04-21T17:19:39.820Z,93.40
2019-04-21T17:22:03.783Z,95.00
2019-04-21T17:24:34.387Z,93.80
2019-04-21T17:27:02.915Z,94.60
2019-04-21T17:29:32.594Z,84.80
2019-04-21T17:32:04.702Z,58.10
2019-04-21T17:34:33.492Z,54.90
2019-04-21T17:37:03.403Z,60.20
2019-04-21T17:39:32.566Z,66.80
2019-04-21T17:42:14.173Z,66.70
2019-04-21T17:44:32.942Z,69.60
2019-04-21T17:47:05.676Z,67.80
2019-04-21T17:49:32.851Z,63.30
2019-04-21T17:52:16.282Z,61.80
2019-04-21T17:54:48.405Z,65.00
2019-04-21T17:57:33.478Z,63.80
2019-04-21T18:00:04.718Z,62.50
2019-04-21T18:02:35.142Z,59.10
2019-04-21T18:05:02.389Z,57.80
2019-04-21T18:07:47.876Z,61.80
2019-04-21T18:10:06.098Z,65.70
2019-04-21T18:12:28.068Z,65.70
2019-04-21T18:14:54.125Z,72.40
2019-04-21T18:17:14.163Z,66.00
2019-04-21T18:19:47.111Z,69.30
2019-04-21T18:22:14.727Z,69.00
2019-04-21T18:24:54.207Z,65.70
2019-04-21T18:27:15.512Z,68.20
2019-04-21T18:29:44.431Z,69.80
2019-04-21T18:32:19.723Z,66.50
2019-04-21T18:35:02.163Z,47.30
2019-04-21T18:40:30.790Z,43.10
2019-04-21T18:43:23.826Z,45.30
2019-04-21T18:46:00.347Z,46.60
2019-04-21T18:48:24.714Z,46.70
2019-04-21T18:51:06.387Z,46.70
2019-04-21T18:53:44.758Z,46.70
2019-04-21T18:56:05.793Z,49.40
2019-04-21T18:58:30.827Z,53.10
2019-04-21T19:01:07.377Z,55.60
2019-04-21T19:03:37.662Z,63.40
2019-04-21T19:06:08.059Z,61.20
2019-04-21T19:08:53.389Z,60.60
2019-04-21T19:11:22.286Z,59.50
2019-04-21T19:14:11.367Z,56.20
2019-04-21T19:16:33.615Z,65.80
2019-04-21T19:19:21.240Z,60.20
2019-04-21T19:21:20.380Z,61.60
2019-04-21T19:23:56.323Z,68.80
2019-04-21T19:28:52.448Z,62.00
2019-04-21T19:31:24.782Z,66.20
2019-04-21T19:33:45.524Z,72.30
2019-04-21T19:36:05.575Z,70.70
2019-04-21T19:38:45.809Z,65.90
2019-04-21T19:41:23.016Z,69.00
2019-04-21T19:43:52.353Z,66.50
2019-04-21T19:46:23.634Z,66.90
2019-04-21T19:49:01.168Z,65.90
2019-04-21T19:51:19.799Z,68.30
2019-04-21T19:53:44.914Z,67.00
2019-04-21T19:56:03.830Z,68.00
2019-04-21T19:58:38.456Z,64.90
2019-04-21T20:01:03.593Z,62.30
2019-04-21T20:03:34.577Z,60.00
2019-04-21T20:06:11.775Z,60.30
2019-04-21T20:08:43.237Z,58.70
2019-04-21T20:11:19.124Z,62.50
2019-04-21T20:14:12.431Z,61.30
2019-04-21T20:16:28.845Z,62.80
2019-04-21T20:18:40.682Z,64.30
2019-04-21T20:21:04.037Z,63.80
2019-04-21T20:23:37.370Z,69.40
2019-04-21T20:26:06.368Z,71.70
2019-04-21T20:28:48.024Z,71.10
2019-04-21T20:31:19.218Z,67.10
2019-04-21T20:33:59.954Z,70.70
2019-04-21T20:36:26.420Z,72.30
2019-04-21T20:38:42.054Z,69.60
2019-04-21T20:41:19.635Z,74.60
2019-04-21T20:43:54.211Z,73.80
2019-04-21T20:46:15.654Z,78.30
2019-04-21T20:48:49.432Z,77.40
2019-04-21T20:51:18.025Z,78.10
2019-04-21T20:53:44.980Z,76.00
2019-04-21T20:56:13.113Z,78.50
2019-04-21T20:58:53.703Z,79.90
2019-04-21T21:01:32.246Z,80.90
2019-04-21T21:03:50.122Z,77.60
2019-04-21T21:06:18.679Z,77.60
2019-04-21T21:08:52.939Z,77.40
2019-04-21T21:11:18.220Z,76.60
2019-04-21T21:13:47.876Z,77.90
2019-04-21T21:16:21.632Z,82.70
2019-04-21T21:21:15.603Z,81.70
2019-04-21T21:23:49.668Z,82.60
2019-04-21T21:26:23.427Z,81.90
2019-04-21T21:28:42.976Z,83.80
2019-04-21T21:31:25.192Z,92.30
2019-04-21T21:33:59.187Z,96.50
2019-04-21T21:36:19.265Z,97.20
2019-04-21T21:38:46.661Z,90.00
2019-04-21T21:41:11.947Z,86.80
2019-04-21T21:43:32.799Z,89.20
2019-04-21T21:46:10.995Z,90.50
2019-04-21T21:48:44.951Z,90.60
2019-04-21T21:51:10.095Z,93.00
2019-04-21T21:53:34.098Z,94.30
2019-04-21T21:56:02.754Z,89.60
2019-04-21T21:58:37.150Z,93.70
2019-04-21T22:01:05.971Z,90.10
2019-04-21T22:03:37.089Z,91.70
2019-04-21T22:06:07.823Z,98.40
2019-04-21T22:08:34.240Z,96.10
2019-04-21T22:11:03.316Z,92.90
2019-04-21T22:13:42.964Z,95.30
2019-04-21T22:16:08.871Z,94.20
2019-04-21T22:18:56.789Z,94.10
2019-04-21T22:21:15.658Z,95.90
2019-04-21T22:23:44.147Z,93.70
2019-04-21T22:26:03.221Z,95.90
2019-04-21T22:28:33.781Z,94.70
2019-04-21T22:31:05.563Z,97.20
2019-04-21T22:33:40.289Z,96.50
2019-04-21T22:36:15.537Z,96.90
2019-04-21T22:38:49.071Z,99.90
2019-04-21T22:41:12.954Z,99.50
2019-04-21T22:43:39.942Z,99.90
2019-04-21T22:46:03.211Z,99.90
2019-04-21T22:48:32.565Z,95.50
2019-04-21T22:51:05.603Z,99.40
2019-04-21T22:53:36.283Z,97.70
2019-04-21T22:56:10.910Z,98.50
2019-04-21T22:58:37.316Z,95.10
2019-04-21T23:01:04.261Z,99.90
2019-04-21T23:03:33.971Z,99.90
2019-04-21T23:06:09.960Z,99.60
2019-04-21T23:08:38.402Z,99.90
2019-04-21T23:11:08.621Z,99.90
2019-04-21T23:13:34.472Z,99.20
2019-04-21T23:16:06.139Z,98.10
2019-04-21T23:18:46.367Z,95.80
2019-04-21T23:21:17.319Z,99.90
2019-04-21T23:23:51.709Z,99.90
2019-04-21T23:26:29.770Z,99.90
2019-04-21T23:28:57.276Z,99.90
2019-04-21T23:31:27.571Z,99.20
2019-04-21T23:33:34.570Z,97.80
2019-04-21T23:36:12.899Z,98.50
2019-04-21T23:38:41.747Z,97.50
2019-04-21T23:41:07.491Z,96.20
2019-04-21T23:43:35.431Z,99.20
2019-04-21T23:46:13.235Z,99.90
2019-04-21T23:48:48.810Z,99.90
2019-04-21T23:51:15.652Z,99.90
2019-04-21T23:53:35.272Z,98.00
2019-04-21T23:56:05.346Z,99.90
2019-04-21T23:58:35.811Z,99.30
